Time;durP1;ratioP1;P1;durP2;ratioP2;P2;SDS_P1;SDS_P2;PMS_P1;PMS_P2;Temp;Humidity;BMP_temperature;BMP_pressure;BME280_temperature;BME280_humidity;BME280_pressure;Samples;Min_cycle;Max_cycle;Signal;HPM_P1;HPM_P2
2023/03/08 00:01:11;;;;;;;0.50;0.50;;;-1.10;99.90;-2.20;97659;;;;577691;244;24062;-76
2023/03/08 00:03:43;;;;;;;3.07;1.17;;;-1.10;99.90;-2.20;97672;;;;578314;243;24147;-74
2023/03/08 00:06:07;;;;;;;5.47;1.70;;;-1.10;99.90;-2.20;97671;;;;580596;243;24131;-79
2023/03/08 00:08:35;;;;;;;4.50;1.87;;;-1.10;99.90;-2.30;97673;;;;580699;243;24063;-77
2023/03/08 00:11:06;;;;;;;4.57;1.33;;;-1.20;99.90;-2.30;97660;;;;580458;243;24103;-76
2023/03/08 00:13:34;;;;;;;1.97;1.30;;;-1.20;99.90;-2.40;97677;;;;580251;243;24071;-71
2023/03/08 00:16:05;;;;;;;5.23;1.40;;;-1.30;99.90;-2.40;97674;;;;580242;243;24199;-76
2023/03/08 00:18:34;;;;;;;3.37;1.30;;;-1.30;99.90;-2.40;97684;;;;588861;243;24055;-74
2023/03/08 00:20:59;;;;;;;4.07;1.47;;;-1.30;99.90;-2.30;97684;;;;580037;243;24080;-78
2023/03/08 00:23:27;;;;;;;2.37;1.10;;;-1.30;99.90;-2.30;97678;;;;588950;243;24049;-79
2023/03/08 00:25:55;;;;;;;3.23;1.60;;;-1.30;99.90;-2.30;97670;;;;580031;243;24059;-74
2023/03/08 00:28:23;;;;;;;2.03;0.90;;;-1.30;99.90;-2.30;97683;;;;580029;243;24065;-73
2023/03/08 00:30:55;;;;;;;1.60;1.17;;;-1.30;99.90;-2.30;97683;;;;580045;243;24070;-77
2023/03/08 00:33:26;;;;;;;2.70;0.87;;;-1.30;99.90;-2.30;97680;;;;582135;243;24064;-74
2023/03/08 00:35:57;;;;;;;1.53;1.43;;;-1.30;99.90;-2.30;97677;;;;579905;243;24064;-78
2023/03/08 00:38:27;;;;;;;2.53;1.20;;;-1.30;99.90;-2.30;97677;;;;580038;243;24056;-72
2023/03/08 00:40:56;;;;;;;2.73;1.27;;;-1.30;99.90;-2.30;97679;;;;588416;244;24069;-73
2023/03/08 00:43:20;;;;;;;3.40;1.10;;;-1.20;99.90;-2.30;97685;;;;577908;244;24070;-72
2023/03/08 00:45:51;;;;;;;5.10;1.07;;;-1.20;99.90;-2.30;97681;;;;579757;244;24066;-78
2023/03/08 00:48:17;;;;;;;3.57;1.17;;;-1.20;99.90;-2.30;97690;;;;578222;244;24064;-77
2023/03/08 00:50:45;;;;;;;3.70;1.60;;;-1.20;99.90;-2.30;97672;;;;579472;244;24058;-76
2023/03/08 00:53:13;;;;;;;5.37;1.30;;;-1.20;99.90;-2.30;97696;;;;579319;244;24119;-77
2023/03/08 00:55:50;;;;;;;2.63;1.37;;;-1.20;99.90;-2.30;97676;;;;588285;244;24049;-80
2023/03/08 00:58:17;;;;;;;2.90;1.20;;;-1.20;99.90;-2.30;97673;;;;572390;244;44903;-79
2023/03/08 01:00:49;;;;;;;0.33;0.33;;;-1.20;99.90;-2.30;97678;;;;588181;243;24061;-77
2023/03/08 01:03:13;;;;;;;3.27;1.20;;;-1.30;99.90;-2.30;97681;;;;579180;244;24075;-76
2023/03/08 01:05:42;;;;;;;5.63;1.33;;;-1.30;99.90;-2.30;97675;;;;579342;244;24068;-74
2023/03/08 01:08:14;;;;;;;3.60;1.40;;;-1.30;99.90;-2.40;97686;;;;577584;242;24071;-77
2023/03/08 01:10:38;;;;;;;2.20;1.30;;;-1.30;99.90;-2.40;97674;;;;577181;244;24060;-80
2023/03/08 01:13:06;;;;;;;1.80;0.90;;;-1.30;99.90;-2.40;97680;;;;579705;244;24076;-78
2023/03/08 01:15:39;;;;;;;2.03;1.30;;;-1.30;99.90;-2.50;97675;;;;580352;243;24069;-79
2023/03/08 01:18:07;;;;;;;5.37;1.30;;;-1.40;99.90;-2.50;97684;;;;580672;243;24094;-78
2023/03/08 01:20:38;;;;;;;4.23;1.17;;;-1.40;99.90;-2.50;97697;;;;580571;243;24077;-79
2023/03/08 01:23:07;;;;;;;4.70;1.35;;;-1.40;99.90;-2.50;97691;;;;575335;243;35206;-77
2023/03/08 01:25:31;;;;;;;2.10;0.87;;;-1.40;99.90;-2.50;97677;;;;580288;243;24110;-78
2023/03/08 01:27:59;;;;;;;3.20;1.17;;;-1.40;99.90;-2.50;97685;;;;580298;243;24058;-78
2023/03/08 01:30:31;;;;;;;4.23;1.10;;;-1.40;99.90;-2.50;97670;;;;578903;243;24090;-81
2023/03/08 01:32:56;;;;;;;3.70;1.23;;;-1.40;99.90;-2.50;97685;;;;576873;243;24048;-77
2023/03/08 01:35:23;;;;;;;2.87;0.73;;;-1.40;99.90;-2.50;97680;;;;580002;243;24080;-79
2023/03/08 01:37:55;;;;;;;3.80;1.40;;;-1.40;99.90;-2.50;97675;;;;580044;243;24109;-76
2023/03/08 01:40:19;;;;;;;2.27;1.10;;;-1.40;99.90;-2.60;97680;;;;578197;243;24048;-78
2023/03/08 01:42:48;;;;;;;1.57;0.80;;;-1.50;99.90;-2.60;97684;;;;578684;243;25090;-74
2023/03/08 01:46:05;;;;;;;4.83;1.17;;;-1.50;99.90;-2.60;97688;;;;580039;243;24083;-78
2023/03/08 01:48:36;;;;;;;3.28;1.17;;;-1.50;99.90;-2.60;97681;;;;572869;243;45992;-77
2023/03/08 01:51:04;;;;;;;0.70;0.70;;;-1.50;99.90;-2.60;97691;;;;588678;243;24108;-72
2023/03/08 01:53:32;;;;;;;1.30;0.90;;;-1.50;99.90;-2.60;97692;;;;588410;244;24096;-72
2023/03/08 01:56:00;;;;;;;1.93;1.03;;;-1.50;99.90;-2.60;97694;;;;579944;244;24052;-73
2023/03/08 01:58:28;;;;;;;1.60;1.10;;;-1.50;99.90;-2.60;97698;;;;579628;244;24081;-76
2023/03/08 02:00:57;;;;;;;3.60;1.33;;;-1.60;99.90;-2.70;97695;;;;579582;244;24096;-78
2023/03/08 02:03:25;;;;;;;1.40;1.10;;;-1.60;99.90;-2.60;97693;;;;579497;244;24122;-75
2023/03/08 02:05:55;;;;;;;1.10;1.00;;;-1.60;99.90;-2.60;97691;;;;579352;244;24072;-74
2023/03/08 02:08:20;;;;;;;2.70;1.10;;;-1.50;99.90;-2.60;97706;;;;581802;244;24059;-75
2023/03/08 02:10:51;;;;;;;1.03;0.77;;;-1.50;99.90;-2.50;97702;;;;579727;244;24051;-79
2023/03/08 02:13:16;;;;;;;3.07;1.00;;;-1.50;99.90;-2.50;97698;;;;578213;244;24064;-73
2023/03/08 02:15:45;;;;;;;2.63;0.90;;;-1.40;99.90;-2.50;97703;;;;588654;244;24165;-77
2023/03/08 02:18:14;;;;;;;1.00;0.90;;;-1.50;99.90;-2.60;97706;;;;579742;244;24041;-79
2023/03/08 02:20:42;;;;;;;2.13;0.70;;;-1.50;99.90;-2.60;97693;;;;579719;244;24045;-78
2023/03/08 02:23:13;;;;;;;3.13;1.03;;;-1.50;99.90;-2.50;97691;;;;579745;244;24050;-76
2023/03/08 02:25:47;;;;;;;0.90;0.63;;;-1.40;99.90;-2.50;97695;;;;579779;244;24066;-78
2023/03/08 02:28:15;;;;;;;2.23;0.90;;;-1.40;99.90;-2.40;97699;;;;579599;243;24084;-78
2023/03/08 02:30:43;;;;;;;2.97;0.50;;;-1.40;99.90;-2.40;97701;;;;583312;243;24058;-79
2023/03/08 02:33:10;;;;;;;1.57;0.60;;;-1.30;99.90;-2.30;97710;;;;580460;243;24054;-79
2023/03/08 02:35:41;;;;;;;1.00;0.90;;;-1.20;99.90;-2.30;97716;;;;580477;243;24051;-78
2023/03/08 02:38:08;;;;;;;2.70;0.90;;;-1.20;99.90;-2.20;97707;;;;570220;237;24146;-85
2023/03/08 02:40:36;;;;;;;0.83;0.80;;;-1.20;99.90;-2.10;97718;;;;567848;251;24102;-84
2023/03/08 02:43:05;;;;;;;1.37;0.80;;;-1.10;99.90;-2.10;97735;;;;572662;250;24389;-80
2023/03/08 02:45:33;;;;;;;4.77;1.00;;;-1.00;99.90;-1.90;97743;;;;566648;250;24088;-85
2023/03/08 02:48:01;;;;;;;1.77;0.70;;;-0.90;99.90;-1.90;97737;;;;567534;250;24095;-83
2023/03/08 02:50:32;;;;;;;5.93;1.10;;;-0.90;99.90;-2.00;97739;;;;563615;250;24141;-74
2023/03/08 02:52:57;;;;;;;4.37;0.80;;;-0.90;99.90;-2.10;97756;;;;566639;250;24099;-74
2023/03/08 02:55:28;;;;;;;2.60;0.83;;;-1.00;99.90;-2.20;97740;;;;567829;250;24079;-81
2023/03/08 02:57:52;;;;;;;8.33;1.33;;;-1.10;99.90;-2.40;97739;;;;569082;248;24088;-81
2023/03/08 03:00:20;;;;;;;3.93;0.90;;;-1.20;99.90;-2.40;97729;;;;569641;248;24087;-75
2023/03/08 03:02:48;;;;;;;2.23;1.00;;;-1.30;99.90;-2.40;97729;;;;569611;248;24082;-74
2023/03/08 03:05:17;;;;;;;3.73;0.90;;;-1.20;99.90;-2.40;97720;;;;569379;248;24058;-74
2023/03/08 03:07:45;;;;;;;1.23;0.90;;;-1.30;99.90;-2.30;97727;;;;569400;248;24069;-74
2023/03/08 03:10:13;;;;;;;7.33;0.83;;;-1.20;99.90;-2.20;97736;;;;569384;248;24135;-75
2023/03/08 03:12:44;;;;;;;2.57;0.80;;;-1.10;99.90;-2.20;97734;;;;569016;248;24170;-75
2023/03/08 03:15:09;;;;;;;1.27;0.80;;;-1.10;99.90;-2.20;97735;;;;568776;248;24183;-75
2023/03/08 03:17:37;;;;;;;4.20;0.90;;;-1.10;99.90;-2.20;97744;;;;577739;248;24073;-81
2023/03/08 03:20:11;;;;;;;5.63;0.63;;;-1.10;99.90;-2.20;97743;;;;569089;248;24109;-78
2023/03/08 03:22:39;;;;;;;2.23;1.00;;;-1.00;99.90;-2.20;97744;;;;569167;248;24103;-82
2023/03/08 03:25:10;;;;;;;1.27;0.80;;;-1.10;99.90;-2.30;97761;;;;568971;248;24133;-79
2023/03/08 03:27:35;;;;;;;2.43;0.87;;;-1.10;99.90;-2.30;97765;;;;577942;248;24089;-80
2023/03/08 03:30:07;;;;;;;2.10;0.90;;;-1.30;99.90;-2.40;97746;;;;569279;248;24095;-78
2023/03/08 03:32:31;;;;;;;0.80;0.63;;;-1.30;99.90;-2.40;97750;;;;568514;248;25142;-84
2023/03/08 03:34:59;;;;;;;1.37;0.90;;;-1.30;99.90;-2.50;97758;;;;569079;248;24088;-82
2023/03/08 03:37:30;;;;;;;1.13;0.90;;;-1.30;99.90;-2.50;97748;;;;569018;248;25138;-75
2023/03/08 03:39:56;;;;;;;2.50;0.80;;;-1.40;99.90;-2.50;97752;;;;570126;247;24075;-74
2023/03/08 03:42:24;;;;;;;1.93;1.03;;;-1.40;99.90;-2.50;97733;;;;570170;248;24122;-76
2023/03/08 03:44:52;;;;;;;1.57;0.70;;;-1.40;99.90;-2.50;97739;;;;569757;248;24088;-82
2023/03/08 03:47:20;;;;;;;4.97;1.07;;;-1.40;99.90;-2.50;97770;;;;569990;248;24090;-86
2023/03/08 03:49:48;;;;;;;2.03;0.93;;;-1.40;99.90;-2.50;97767;;;;569519;248;24079;-83
2023/03/08 03:52:17;;;;;;;2.20;0.73;;;-1.40;99.90;-2.50;97786;;;;569889;248;24106;-85
2023/03/08 03:54:45;;;;;;;1.87;0.80;;;-1.40;99.90;-2.50;97784;;;;569896;248;24079;-83
2023/03/08 03:57:13;;;;;;;2.63;0.70;;;-1.40;99.90;-2.50;97768;;;;569886;247;24193;-84
2023/03/08 03:59:41;;;;;;;0.80;0.60;;;-1.40;99.90;-2.50;97760;;;;569387;248;24176;-79
2023/03/08 04:02:09;;;;;;;1.70;0.87;;;-1.40;99.90;-2.60;97774;;;;569432;248;24092;-77
2023/03/08 04:04:36;;;;;;;1.83;0.70;;;-1.40;99.90;-2.60;97771;;;;569403;248;24092;-82
2023/03/08 04:07:04;;;;;;;4.47;1.07;;;-1.40;99.90;-2.60;97781;;;;569222;248;24087;-85
2023/03/08 04:09:32;;;;;;;1.50;0.50;;;-1.50;99.90;-2.50;97788;;;;569403;248;24081;-86
2023/03/08 04:12:04;;;;;;;4.20;0.80;;;-1.40;99.90;-2.40;97808;;;;569312;248;24085;-84
2023/03/08 04:14:28;;;;;;;3.67;1.10;;;-1.40;99.90;-2.30;97780;;;;569456;248;24120;-83
2023/03/08 04:16:56;;;;;;;1.87;1.10;;;-1.20;99.90;-2.30;97793;;;;569417;248;24076;-86
2023/03/08 04:19:25;;;;;;;3.60;1.20;;;-1.20;99.90;-2.30;97794;;;;569468;248;24092;-85
2023/03/08 04:21:53;;;;;;;4.03;1.00;;;-1.20;99.90;-2.40;97801;;;;569393;248;24088;-79
2023/03/08 04:24:20;;;;;;;1.40;0.83;;;-1.20;99.90;-2.50;97793;;;;569488;248;24084;-74
2023/03/08 04:26:48;;;;;;;1.47;1.27;;;-1.30;99.90;-2.40;97783;;;;569461;248;24083;-77
2023/03/08 04:29:17;;;;;;;1.97;0.90;;;-1.30;99.90;-2.40;97790;;;;569438;248;24089;-74
2023/03/08 04:31:45;;;;;;;2.87;0.57;;;-1.30;99.90;-2.40;97790;;;;569370;248;24109;-83
2023/03/08 04:34:13;;;;;;;1.07;0.90;;;-1.30;99.90;-2.30;97805;;;;569399;248;24148;-85
2023/03/08 04:36:41;;;;;;;1.90;0.60;;;-1.20;99.90;-2.20;97796;;;;569399;248;24075;-85
2023/03/08 04:39:09;;;;;;;2.53;0.90;;;-1.10;99.90;-2.20;97785;;;;569451;248;24099;-84
2023/03/08 04:41:37;;;;;;;1.87;0.83;;;-1.10;99.90;-2.20;97792;;;;569519;248;24065;-86
2023/03/08 04:44:04;;;;;;;4.00;1.00;;;-1.10;99.90;-2.20;97805;;;;569329;248;24167;-81
2023/03/08 04:46:32;;;;;;;3.70;1.10;;;-1.10;99.90;-2.20;97822;;;;569437;248;24080;-74
2023/03/08 04:49:00;;;;;;;1.23;0.80;;;-1.10;99.90;-2.20;97810;;;;569369;248;24085;-79
2023/03/08 04:51:28;;;;;;;1.00;0.73;;;-1.10;99.90;-2.20;97804;;;;570637;247;24069;-76
2023/03/08 04:53:56;;;;;;;2.50;1.03;;;-1.10;99.90;-2.30;97801;;;;570017;248;24076;-76
2023/03/08 04:56:24;;;;;;;5.00;1.00;;;-1.10;99.90;-2.20;97808;;;;569978;248;24098;-78
2023/03/08 04:58:52;;;;;;;1.63;1.00;;;-1.10;99.90;-2.30;97802;;;;575722;248;24154;-78
2023/03/08 05:01:24;;;;;;;1.37;1.10;;;-1.10;99.90;-2.20;97809;;;;569426;248;24069;-77
2023/03/08 05:03:51;;;;;;;0.83;0.83;;;-1.10;99.90;-2.20;97820;;;;573172;248;25121;-74
2023/03/08 05:06:18;;;;;;;3.00;1.03;;;-1.10;99.90;-2.10;97826;;;;569364;248;24101;-81
2023/03/08 05:08:46;;;;;;;2.73;1.20;;;-1.00;99.90;-2.00;97843;;;;578084;248;24084;-76
2023/03/08 05:11:23;;;;;;;1.57;0.57;;;-0.90;99.90;-1.90;97844;;;;575171;248;24107;-79
2023/03/08 05:13:51;;;;;;;5.43;0.80;;;-0.80;99.90;-1.90;97832;;;;578218;248;24082;-81
2023/03/08 05:16:19;;;;;;;1.10;1.00;;;-0.80;99.90;-1.90;97850;;;;573635;248;24130;-76
2023/03/08 05:18:47;;;;;;;1.37;0.90;;;-0.80;99.90;-2.00;97842;;;;569573;248;24133;-74
2023/03/08 05:21:17;;;;;;;1.03;0.93;;;-0.90;99.90;-2.10;97847;;;;569598;248;24143;-76
2023/03/08 05:23:45;;;;;;;1.10;0.77;;;-1.00;99.90;-2.20;97849;;;;569613;248;24115;-84
2023/03/08 05:26:13;;;;;;;3.67;0.90;;;-1.10;99.90;-2.30;97864;;;;571936;248;24133;-75
2023/03/08 05:28:41;;;;;;;3.33;1.30;;;-1.20;99.90;-2.40;97871;;;;578076;248;24089;-79
2023/03/08 05:31:12;;;;;;;3.00;1.50;;;-1.20;99.90;-2.40;97844;;;;569358;248;24070;-84
2023/03/08 05:33:40;;;;;;;5.47;1.53;;;-1.40;99.90;-2.50;97854;;;;569131;248;24081;-84
2023/03/08 05:36:08;;;;;;;6.33;2.50;;;-1.40;99.90;-2.60;97845;;;;569169;248;24137;-86
2023/03/08 05:38:36;;;;;;;3.13;1.53;;;-1.40;99.90;-2.70;97836;;;;569434;248;24136;-80
2023/03/08 05:41:04;;;;;;;4.33;2.00;;;-1.60;99.90;-2.90;97836;;;;569457;248;24071;-79
2023/03/08 05:43:33;;;;;;;7.47;1.77;;;-1.70;99.90;-2.80;97863;;;;566673;248;35290;-79
2023/03/08 05:46:01;;;;;;;0.97;0.97;;;-1.60;99.90;-2.60;97873;;;;578084;248;24094;-80
2023/03/08 05:48:33;;;;;;;2.60;1.47;;;-1.60;99.90;-2.60;97886;;;;571606;248;24089;-83
2023/03/08 05:50:57;;;;;;;6.43;1.53;;;-1.50;99.90;-2.50;97876;;;;568978;248;24085;-78
2023/03/08 05:53:25;;;;;;;1.47;1.37;;;-1.40;99.90;-2.50;97872;;;;569430;248;24084;-82
2023/03/08 05:55:55;;;;;;;3.13;1.23;;;-1.40;99.90;-2.50;97886;;;;569055;248;24138;-79
2023/03/08 05:58:22;;;;;;;12.57;6.80;;;-1.40;99.90;-2.60;97887;;;;568884;248;25154;-82
2023/03/08 06:00:50;;;;;;;1.87;1.47;;;-1.40;99.90;-2.60;97877;;;;578040;244;24065;-77
2023/03/08 06:03:17;;;;;;;2.60;1.57;;;-1.50;99.90;-2.50;97874;;;;583424;243;24071;-76
2023/03/08 06:05:45;;;;;;;2.50;1.37;;;-1.50;99.90;-2.60;97888;;;;580487;243;25098;-77
2023/03/08 06:08:13;;;;;;;3.90;1.20;;;-1.50;99.90;-2.60;97888;;;;582871;244;24103;-79
2023/03/08 06:10:42;;;;;;;4.60;1.07;;;-1.50;99.90;-2.60;97896;;;;579977;244;24075;-74
2023/03/08 06:13:10;;;;;;;1.07;0.90;;;-1.50;99.90;-2.60;97894;;;;579789;244;24063;-76
2023/03/08 06:15:38;;;;;;;3.63;1.33;;;-1.50;99.90;-2.50;97901;;;;579804;244;24032;-78
2023/03/08 06:18:06;;;;;;;3.10;1.20;;;-1.50;99.90;-2.50;97899;;;;588429;242;24053;-74
2023/03/08 06:20:34;;;;;;;4.33;1.13;;;-1.40;99.90;-2.40;97902;;;;579171;244;24063;-75
2023/03/08 06:23:02;;;;;;;5.00;1.40;;;-1.40;99.90;-2.30;97903;;;;579013;244;24059;-76
2023/03/08 06:25:30;;;;;;;2.37;1.27;;;-1.30;99.90;-2.10;97913;;;;579143;244;24059;-76
2023/03/08 06:27:58;;;;;;;4.77;1.20;;;-1.10;99.90;-1.80;97920;;;;578978;244;24050;-74
2023/03/08 06:30:26;;;;;;;2.73;1.20;;;-0.80;99.90;-1.60;97918;;;;579187;244;24071;-76
2023/03/08 06:32:54;;;;;;;2.53;1.23;;;-0.60;99.90;-1.00;97937;;;;581937;244;24095;-76
2023/03/08 06:35:22;;;;;;;3.00;1.10;;;-0.10;99.90;0.40;97944;;;;579026;244;24115;-76
2023/03/08 06:37:50;;;;;;;1.90;0.50;;;1.00;99.90;1.90;97964;;;;579037;244;24150;-80
2023/03/08 06:40:19;;;;;;;0.60;0.50;;;2.40;99.90;2.20;97958;;;;581571;244;24127;-80
2023/03/08 06:42:48;;;;;;;0.33;0.30;;;3.10;99.90;1.80;97964;;;;578915;244;24069;-75
2023/03/08 06:45:16;;;;;;;3.80;0.90;;;3.00;99.90;1.70;97957;;;;578820;244;24063;-77
2023/03/08 06:47:47;;;;;;;1.33;0.70;;;3.00;99.90;2.20;97961;;;;578932;244;24137;-75
2023/03/08 06:50:14;;;;;;;1.77;0.77;;;3.20;99.90;3.50;97980;;;;578800;244;24070;-79
2023/03/08 06:52:45;;;;;;;2.53;0.67;;;4.10;99.90;4.80;97966;;;;578730;244;24063;-75
2023/03/08 06:55:10;;;;;;;1.13;0.90;;;5.30;99.90;5.30;98000;;;;578757;244;24074;-80
2023/03/08 06:57:38;;;;;;;4.73;0.77;;;6.20;99.90;4.50;97996;;;;576292;248;24111;-76
2023/03/08 07:00:08;;;;;;;3.93;1.57;;;5.90;99.90;3.80;98009;;;;578118;244;24057;-77
2023/03/08 07:02:34;;;;;;;2.00;1.10;;;5.30;99.90;5.10;98006;;;;566304;249;24078;-76
2023/03/08 07:05:02;;;;;;;2.70;0.80;;;5.80;99.90;6.60;98022;;;;560204;247;24080;-76
2023/03/08 07:07:30;;;;;;;1.60;1.10;;;7.10;99.90;7.90;98022;;;;579223;244;24057;-76
2023/03/08 07:09:58;;;;;;;2.40;1.00;;;8.30;99.90;8.70;98037;;;;579274;244;24061;-76
2023/03/08 07:12:27;;;;;;;0.57;0.57;;;10.20;99.90;9.50;98037;;;;579197;244;24063;-74
2023/03/08 07:14:55;;;;;;;1.50;1.40;;;10.10;99.90;10.60;98045;;;;580580;243;24061;-74
2023/03/08 07:17:23;;;;;;;5.20;1.20;;;11.00;99.90;11.60;98041;;;;583136;243;25115;-77
2023/03/08 07:19:51;;;;;;;3.50;1.20;;;12.10;99.90;12.60;98045;;;;588598;243;24062;-75
2023/03/08 07:22:19;;;;;;;1.50;1.03;;;13.80;99.90;13.20;98063;;;;579445;244;24039;-75
2023/03/08 07:24:47;;;;;;;3.27;1.17;;;13.80;99.90;13.90;98059;;;;582245;244;24034;-75
2023/03/08 07:27:15;;;;;;;4.43;1.23;;;14.50;99.90;14.80;98063;;;;582086;244;24033;-76
2023/03/08 07:29:46;;;;;;;1.30;0.80;;;15.30;98.20;15.30;98074;;;;582255;244;24049;-78
2023/03/08 07:32:11;;;;;;;1.50;1.07;;;15.90;94.30;14.80;98074;;;;567393;249;24114;-76
2023/03/08 07:34:39;;;;;;;3.27;1.60;;;15.80;90.60;14.30;98078;;;;578128;244;24050;-76
2023/03/08 07:37:13;;;;;;;2.97;1.17;;;14.60;79.30;13.10;98110;;;;581924;244;24072;-76
2023/03/08 07:39:42;;;;;;;2.90;1.57;;;12.80;91.40;10.50;98111;;;;579518;244;24068;-74
2023/03/08 07:42:11;;;;;;;6.23;1.93;;;10.80;97.70;8.30;98105;;;;579156;244;24057;-81
2023/03/08 07:44:39;;;;;;;7.50;1.30;;;10.70;97.70;6.70;98112;;;;581932;244;24080;-80
2023/03/08 07:47:06;;;;;;;2.43;1.40;;;9.00;99.90;6.20;98127;;;;579245;244;24089;-80
2023/03/08 07:49:34;;;;;;;4.40;1.50;;;7.90;99.90;5.50;98120;;;;574608;248;24139;-83
2023/03/08 07:52:02;;;;;;;2.23;1.10;;;7.10;99.90;5.00;98129;;;;565972;249;24095;-83
2023/03/08 07:54:30;;;;;;;4.70;1.23;;;6.30;99.90;5.80;98124;;;;581689;244;24067;-82
2023/03/08 07:56:58;;;;;;;1.60;1.03;;;6.50;99.90;7.40;98123;;;;578712;244;24056;-83
2023/03/08 07:59:26;;;;;;;3.83;1.30;;;7.70;99.90;9.60;98142;;;;578823;244;24082;-81
2023/03/08 08:01:54;;;;;;;1.97;1.40;;;9.60;99.90;11.40;98153;;;;581554;244;24140;-78
2023/03/08 08:04:22;;;;;;;2.13;1.40;;;11.50;99.90;12.60;98158;;;;578974;244;24065;-78
2023/03/08 08:06:50;;;;;;;3.57;1.50;;;13.10;99.90;13.30;98166;;;;578884;244;24047;-78
2023/03/08 08:09:18;;;;;;;6.93;1.90;;;14.70;99.90;14.00;98170;;;;578942;244;24036;-76
2023/03/08 08:11:46;;;;;;;4.03;1.70;;;14.70;99.90;14.40;98176;;;;578870;244;24055;-79
2023/03/08 08:14:14;;;;;;;3.80;1.33;;;15.30;99.90;12.60;98190;;;;581599;244;24186;-83
2023/03/08 08:16:42;;;;;;;1.97;1.20;;;14.40;99.70;10.40;98206;;;;581742;244;24066;-82
2023/03/08 08:19:13;;;;;;;3.50;1.57;;;11.10;99.90;8.70;98197;;;;581612;244;24051;-83
2023/03/08 08:21:39;;;;;;;3.13;1.40;;;11.00;99.90;7.50;98188;;;;579193;244;24060;-76
2023/03/08 08:24:07;;;;;;;2.17;1.47;;;9.60;99.90;8.10;98195;;;;582032;244;24106;-74
2023/03/08 08:26:35;;;;;;;2.60;1.37;;;9.30;99.90;9.40;98207;;;;574776;247;25121;-74
2023/03/08 08:29:03;;;;;;;1.00;0.83;;;10.10;99.90;10.00;98206;;;;580225;243;24065;-75
2023/03/08 08:31:31;;;;;;;2.67;1.70;;;10.90;99.90;11.30;98217;;;;566074;250;24112;-75
2023/03/08 08:34:02;;;;;;;5.70;1.93;;;11.90;99.90;11.50;98221;;;;591082;238;24048;-75
2023/03/08 08:36:26;;;;;;;1.70;1.10;;;12.60;99.80;10.20;98227;;;;592949;238;24111;-75
2023/03/08 08:38:54;;;;;;;3.73;1.50;;;11.80;95.50;10.10;98235;;;;576314;248;24138;-76
2023/03/08 08:41:25;;;;;;;2.60;1.53;;;11.40;98.50;11.20;98238;;;;566186;249;24090;-76
2023/03/08 08:43:51;;;;;;;1.07;1.07;;;12.00;93.60;12.70;98250;;;;571565;247;24150;-77
2023/03/08 08:46:18;;;;;;;3.60;1.80;;;13.30;90.20;14.00;98238;;;;571524;247;24108;-76
2023/03/08 08:48:46;;;;;;;4.70;2.07;;;14.70;85.50;15.60;98263;;;;579437;244;24119;-76
2023/03/08 08:51:14;;;;;;;2.53;1.37;;;16.20;75.40;16.10;98266;;;;579424;244;24052;-75
2023/03/08 08:53:43;;;;;;;1.30;1.00;;;17.10;59.80;16.20;98263;;;;582268;244;24045;-75
2023/03/08 08:56:22;;;;;;;0.93;0.57;;;17.40;56.20;16.40;98256;;;;579483;244;24032;-76
2023/03/08 08:58:50;;;;;;;3.27;1.00;;;17.60;53.20;16.60;98263;;;;588070;243;24077;-77
2023/03/08 09:01:21;;;;;;;0.93;0.67;;;17.90;52.50;17.20;98289;;;;565432;250;24091;-76
2023/03/08 09:03:48;;;;;;;2.33;1.40;;;18.40;51.50;17.30;98292;;;;601732;238;24041;-76
2023/03/08 09:06:20;;;;;;;1.63;0.90;;;18.60;49.60;17.60;98296;;;;592585;238;23059;-77
2023/03/08 09:08:47;;;;;;;5.27;2.17;;;18.80;49.10;17.60;98313;;;;601646;238;23058;-79
2023/03/08 09:11:12;;;;;;;3.03;1.37;;;19.10;45.90;17.30;98314;;;;565039;249;23229;-76
2023/03/08 09:13:41;;;;;;;1.80;0.93;;;18.50;45.50;16.70;98315;;;;565612;249;23083;-76
2023/03/08 09:16:24;;;;;;;3.10;1.20;;;18.40;45.40;15.30;98321;;;;567809;249;24082;-76
2023/03/08 09:18:53;;;;;;;1.13;1.00;;;17.00;48.30;15.50;98323;;;;566912;249;24105;-73
2023/03/08 09:21:22;;;;;;;4.90;2.10;;;16.90;48.30;16.10;98322;;;;566140;249;24074;-75
2023/03/08 09:23:50;;;;;;;3.97;1.63;;;17.40;47.50;16.30;98325;;;;565143;250;24071;-75
2023/03/08 09:26:17;;;;;;;3.57;0.93;;;17.60;45.30;16.20;98327;;;;592276;238;24069;-76
2023/03/08 09:28:46;;;;;;;2.73;0.80;;;17.70;42.80;16.30;98340;;;;591724;238;24050;-75
2023/03/08 09:31:17;;;;;;;1.57;1.00;;;17.70;42.70;15.80;98339;;;;592315;238;24151;-75
2023/03/08 09:33:47;;;;;;;0.93;0.73;;;17.40;43.30;16.10;98329;;;;599155;238;24076;-75
2023/03/08 09:36:16;;;;;;;5.77;3.33;;;17.30;45.50;15.90;98343;;;;602006;236;24043;-76
2023/03/08 09:38:44;;;;;;;2.17;0.87;;;17.30;45.40;15.00;98334;;;;593593;238;24059;-75
2023/03/08 09:41:54;;;;;;;2.70;0.70;;;16.80;46.80;13.10;98344;;;;603011;238;24034;-75
2023/03/08 09:44:44;;;;;;;2.27;0.73;;;15.40;46.30;11.90;98347;;;;563104;249;24112;-76
2023/03/08 09:47:17;;;;;;;1.48;0.57;;;13.90;46.00;10.90;98341;;;;563940;249;35193;-75
2023/03/08 09:49:46;;;;;;;1.97;0.63;;;12.10;50.20;10.40;98338;;;;564936;250;24119;-75
2023/03/08 09:52:17;;;;;;;0.80;0.53;;;11.80;50.70;10.20;98356;;;;592616;238;24027;-74
2023/03/08 09:54:45;;;;;;;6.13;0.70;;;11.70;50.60;10.30;98352;;;;592104;238;24045;-75
2023/03/08 09:57:16;;;;;;;4.93;1.63;;;11.80;52.40;10.30;98362;;;;601838;238;25143;-75
2023/03/08 09:59:54;;;;;;;1.77;0.73;;;12.10;50.30;10.70;98353;;;;592625;238;24023;-77
2023/03/08 10:02:37;;;;;;;2.07;1.40;;;12.10;50.30;10.80;98362;;;;591658;238;24022;-81
2023/03/08 10:05:11;;;;;;;1.30;0.67;;;12.30;49.40;10.60;98362;;;;592225;238;24086;-81
2023/03/08 10:07:47;;;;;;;1.20;0.83;;;12.20;48.80;10.20;98373;;;;600895;238;25128;-75
2023/03/08 10:11:03;;;;;;;3.97;0.80;;;11.20;49.90;9.30;98367;;;;575770;248;24099;-74
2023/03/08 10:13:39;;;;;;;1.43;0.80;;;11.10;49.00;8.20;98366;;;;565647;249;24082;-79
2023/03/08 10:16:28;;;;;;;0.80;0.60;;;10.10;52.00;8.30;98369;;;;579323;247;24076;-76
2023/03/08 10:19:10;;;;;;;2.17;0.60;;;9.80;52.30;8.80;98387;;;;567329;249;24077;-77
2023/03/08 10:21:38;;;;;;;2.60;0.90;;;10.00;52.40;9.50;98377;;;;577962;248;24109;-78
2023/03/08 10:24:39;;;;;;;1.83;0.70;;;10.70;51.10;10.10;98379;;;;574043;244;24075;-76
2023/03/08 10:27:12;;;;;;;1.83;0.50;;;11.20;51.10;10.80;98389;;;;557144;253;24197;-78
2023/03/08 10:29:40;;;;;;;1.73;0.73;;;12.10;50.40;10.90;98394;;;;558138;253;24127;-75
2023/03/08 10:32:08;;;;;;;7.13;2.57;;;12.30;49.10;10.30;98390;;;;555900;249;24089;-78
2023/03/08 10:34:37;;;;;;;2.23;0.60;;;11.60;46.70;9.80;98377;;;;563242;247;24148;-80
2023/03/08 10:37:08;;;;;;;2.03;0.90;;;11.50;46.70;9.50;98388;;;;567843;249;24044;-80
2023/03/08 10:39:39;;;;;;;1.23;0.70;;;11.20;47.90;8.80;98387;;;;586992;244;24088;-78
2023/03/08 10:42:06;;;;;;;3.07;1.33;;;10.70;48.80;8.30;98397;;;;581310;244;35039;-77
2023/03/08 10:44:55;;;;;;;1.67;1.20;;;10.20;50.30;7.80;98395;;;;585606;244;24122;-77
2023/03/08 10:47:32;;;;;;;1.83;1.27;;;9.00;53.00;7.20;98390;;;;577895;244;24056;-75
2023/03/08 10:50:06;;;;;;;0.50;0.50;;;9.00;53.00;6.70;98398;;;;579574;244;24070;-76
2023/03/08 10:52:37;;;;;;;2.53;1.33;;;8.50;53.90;6.00;98403;;;;579061;244;24078;-76
2023/03/08 10:55:11;;;;;;;3.77;0.80;;;7.80;54.50;5.50;98395;;;;579079;244;24117;-76
2023/03/08 10:57:47;;;;;;;0.63;0.43;;;7.20;55.00;4.60;98395;;;;582021;244;24064;-76
2023/03/08 11:00:37;;;;;;;0.20;0.20;;;6.30;55.20;4.00;98397;;;;578674;244;24047;-76
2023/03/08 11:03:23;;;;;;;2.57;0.83;;;5.50;57.40;3.50;98402;;;;587857;244;24063;-78
2023/03/08 11:06:03;;;;;;;2.20;0.30;;;4.80;59.30;3.20;98409;;;;575407;244;24157;-75
2023/03/08 11:08:34;;;;;;;0.33;0.30;;;4.30;60.70;2.80;98419;;;;577675;244;24118;-79
2023/03/08 11:11:11;;;;;;;1.03;0.40;;;3.60;63.00;2.50;98405;;;;578392;244;24060;-78
2023/03/08 11:13:43;;;;;;;2.77;1.10;;;3.60;63.00;2.30;98398;;;;578156;244;24069;-80
2023/03/08 11:16:37;;;;;;;2.00;0.93;;;3.30;64.60;2.10;98396;;;;587071;244;24150;-83
2023/03/08 11:19:11;;;;;;;3.40;1.27;;;3.20;65.70;2.00;98399;;;;578250;244;24197;-82
2023/03/08 11:21:53;;;;;;;1.10;0.90;;;3.00;67.30;1.90;98402;;;;578200;244;24094;-80
2023/03/08 11:24:48;;;;;;;2.83;1.10;;;2.80;68.10;1.80;98401;;;;578235;244;24054;-81
2023/03/08 11:27:43;;;;;;;1.93;1.50;;;2.80;69.70;1.80;98408;;;;577209;244;24064;-80
2023/03/08 11:30:39;;;;;;;2.67;1.10;;;2.70;70.00;1.80;98408;;;;577408;244;24096;-80
2023/03/08 11:33:25;;;;;;;1.50;1.07;;;2.70;70.00;1.70;98412;;;;577576;244;24131;-76